Time;durP1;ratioP1;P1;durP2;ratioP2;P2;SDS_P1;SDS_P2;PMS_P1;PMS_P2;Temp;Humidity;BMP_temperature;BMP_pressure;BME280_temperature;BME280_humidity;BME280_pressure;Samples;Min_cycle;Max_cycle;Signal;HPM_P1;HPM_P2
2021/09/24 00:01:01;;;;;;;12.68;4.83;;;25.30;99.90;;;;;;1859790;76;21195;-87
2021/09/24 00:03:33;;;;;;;11.63;4.78;;;25.30;99.90;;;;;;1857226;75;21152;-88
2021/09/24 00:06:05;;;;;;;11.33;4.95;;;25.40;99.90;;;;;;1881431;75;21169;-88
2021/09/24 00:08:36;;;;;;;6.80;4.53;;;25.40;99.90;;;;;;1888003;75;21101;-88
2021/09/24 00:11:07;;;;;;;5.80;4.47;;;25.40;99.90;;;;;;1885096;75;21154;-87
2021/09/24 00:13:42;;;;;;;9.90;4.72;;;25.40;99.90;;;;;;1821488;77;21234;-88
2021/09/24 00:16:15;;;;;;;7.60;3.87;;;25.40;99.90;;;;;;1841746;77;21159;-88
2021/09/24 00:18:47;;;;;;;7.95;4.75;;;25.40;99.90;;;;;;1853850;77;21120;-89
2021/09/24 00:21:18;;;;;;;7.00;4.00;;;25.40;99.90;;;;;;1854154;77;21167;-89
2021/09/24 00:23:49;;;;;;;5.42;3.77;;;25.50;99.90;;;;;;1844280;75;21655;-89
2021/09/24 00:26:20;;;;;;;6.75;4.28;;;25.40;99.90;;;;;;1868854;75;21213;-90
2021/09/24 00:28:51;;;;;;;8.78;4.25;;;25.40;99.90;;;;;;1874558;74;21141;-91
2021/09/24 00:31:22;;;;;;;8.60;4.53;;;25.50;99.90;;;;;;1870644;74;21191;-89
2021/09/24 00:33:53;;;;;;;7.40;4.25;;;25.50;99.90;;;;;;1878103;74;21166;-89
2021/09/24 00:36:24;;;;;;;10.13;4.40;;;25.50;99.90;;;;;;1804022;78;21112;-89
2021/09/24 00:38:54;;;;;;;9.00;4.70;;;25.50;99.90;;;;;;1849427;77;21172;-90
2021/09/24 00:41:36;;;;;;;;;;;;;;;;;;;;;
2021/09/24 00:47:46;;;;;;;8.00;4.08;;;25.60;99.90;;;;;;1676417;84;21250;-87
2021/09/24 00:53:30;;;;;;;7.60;4.55;;;25.60;99.90;;;;;;1622204;87;21212;-90
2021/09/24 00:56:21;;;;;;;;;;;;;;;;;;;;;
2021/09/24 00:59:10;;;;;;;9.10;4.03;;;25.70;99.90;;;;;;2009610;69;22108;-89
2021/09/24 01:01:43;;;;;;;6.47;3.75;;;25.70;99.90;;;;;;1984079;71;21417;-89
2021/09/24 01:04:15;;;;;;;4.45;3.30;;;25.70;99.90;;;;;;1981446;69;21232;-89
2021/09/24 01:06:46;;;;;;;6.00;4.00;;;25.80;99.90;;;;;;1989813;68;21157;-90
2021/09/24 01:09:19;;;;;;;5.60;3.37;;;25.80;99.90;;;;;;1982006;71;21222;-90
2021/09/24 01:11:52;;;;;;;5.85;3.02;;;25.80;99.90;;;;;;1957788;72;21077;-89
2021/09/24 01:14:24;;;;;;;5.33;3.20;;;25.80;99.90;;;;;;1951342;71;21187;-88
2021/09/24 01:16:57;;;;;;;6.12;3.37;;;25.80;99.90;;;;;;1965607;72;21133;-89
2021/09/24 01:19:29;;;;;;;4.60;3.40;;;25.90;99.90;;;;;;2003844;69;21527;-89
2021/09/24 01:22:01;;;;;;;7.03;3.37;;;25.90;99.90;;;;;;1995297;69;21236;-88
2021/09/24 01:24:32;;;;;;;7.17;3.80;;;26.00;99.90;;;;;;1967996;71;21137;-87
2021/09/24 01:27:08;;;;;;;5.05;3.27;;;26.00;99.90;;;;;;1939088;72;21240;-88
2021/09/24 01:29:43;;;;;;;4.42;3.35;;;26.00;99.90;;;;;;1912263;72;21563;-87
2021/09/24 01:32:14;;;;;;;5.95;3.90;;;26.10;99.90;;;;;;1985544;69;21668;-86
2021/09/24 01:34:46;;;;;;;6.37;3.65;;;26.10;99.90;;;;;;2005331;69;21088;-85
2021/09/24 01:37:17;;;;;;;5.50;3.47;;;26.10;99.90;;;;;;1996766;70;21056;-88
2021/09/24 01:39:48;;;;;;;8.05;3.60;;;26.10;99.90;;;;;;1990643;70;21076;-88
2021/09/24 01:42:21;;;;;;;4.22;2.95;;;26.10;99.90;;;;;;1993548;69;21194;-87
2021/09/24 01:44:52;;;;;;;6.58;3.60;;;26.20;99.90;;;;;;2003122;69;21177;-88
2021/09/24 01:47:23;;;;;;;5.92;3.20;;;26.20;99.90;;;;;;2011192;69;21185;-78
2021/09/24 01:49:54;;;;;;;5.85;3.30;;;26.20;99.90;;;;;;1996570;69;21143;-78
2021/09/24 01:52:25;;;;;;;7.30;3.45;;;26.20;99.90;;;;;;1999517;69;21136;-77
2021/09/24 01:54:56;;;;;;;6.20;3.37;;;26.30;99.90;;;;;;1948489;72;21571;-77
2021/09/24 01:57:28;;;;;;;10.65;3.47;;;26.30;99.90;;;;;;1953101;71;21147;-76
2021/09/24 02:00:01;;;;;;;5.90;4.00;;;26.30;99.90;;;;;;1933608;71;21508;-76
2021/09/24 02:02:31;;;;;;;4.90;3.02;;;26.30;99.90;;;;;;1996617;69;21072;-76
2021/09/24 02:05:03;;;;;;;4.60;3.15;;;26.40;99.90;;;;;;1978298;70;21071;-76
2021/09/24 02:08:05;;;;;;;;;;;;;;;;;;;;;
2021/09/24 02:10:17;;;;;;;6.90;3.83;;;26.40;99.90;;;;;;1968423;69;21118;-75
2021/09/24 02:12:57;;;;;;;4.83;3.05;;;26.50;99.90;;;;;;1972071;70;21137;-75
2021/09/24 02:15:34;;;;;;;6.28;3.45;;;26.50;99.90;;;;;;1993781;69;21217;-75
2021/09/24 02:18:05;;;;;;;8.20;3.45;;;26.50;99.90;;;;;;1990850;69;21135;-77
2021/09/24 02:20:39;;;;;;;5.95;3.40;;;26.60;99.90;;;;;;1969686;71;21151;-74
2021/09/24 02:23:11;;;;;;;4.40;3.17;;;26.60;99.90;;;;;;1981518;70;21193;-75
2021/09/24 02:25:42;;;;;;;6.60;2.77;;;26.60;99.90;;;;;;1986435;69;21637;-76
2021/09/24 02:28:14;;;;;;;4.40;3.02;;;26.60;99.90;;;;;;2002950;69;21657;-75
2021/09/24 02:30:46;;;;;;;10.13;4.70;;;26.60;99.90;;;;;;1991794;70;21163;-75
2021/09/24 02:33:17;;;;;;;28.77;13.40;;;26.70;99.90;;;;;;1994811;70;21127;-75
2021/09/24 02:35:48;;;;;;;23.75;12.18;;;26.60;99.90;;;;;;2009432;69;21139;-76
2021/09/24 02:38:18;;;;;;;15.90;8.13;;;26.70;99.90;;;;;;2003965;69;21184;-76
2021/09/24 02:40:49;;;;;;;10.43;4.20;;;26.70;99.90;;;;;;2009652;70;21143;-78
2021/09/24 02:43:20;;;;;;;14.65;6.05;;;26.70;99.90;;;;;;1987993;71;21185;-76
2021/09/24 02:45:51;;;;;;;7.42;3.90;;;26.70;99.90;;;;;;1976192;71;21139;-78
2021/09/24 02:48:22;;;;;;;5.62;2.80;;;26.70;99.90;;;;;;1998613;70;21148;-77
2021/09/24 02:50:53;;;;;;;5.40;2.50;;;26.70;99.90;;;;;;1996335;70;21140;-76
2021/09/24 02:53:24;;;;;;;5.20;2.42;;;26.70;99.90;;;;;;2003126;69;21126;-78
2021/09/24 02:55:55;;;;;;;5.45;2.37;;;26.70;99.90;;;;;;1996238;70;21201;-77
2021/09/24 02:58:28;;;;;;;4.50;2.62;;;26.70;99.90;;;;;;2010284;70;21637;-77
2021/09/24 03:00:59;;;;;;;6.33;2.45;;;26.60;99.90;;;;;;1990030;69;21143;-78
2021/09/24 03:03:31;;;;;;;4.15;2.72;;;26.60;99.90;;;;;;1984848;69;21048;-77
2021/09/24 03:06:02;;;;;;;4.65;3.00;;;26.60;99.90;;;;;;1989681;70;21765;-76
2021/09/24 03:10:15;;;;;;;;;;;;;;;;;;;;;
2021/09/24 03:11:49;;;;;;;;;;;;;;;;;;;;;
2021/09/24 03:25:12;;;;;;;4.60;3.10;;;26.60;99.90;;;;;;1936810;73;22120;-77
2021/09/24 03:28:13;;;;;;;6.30;3.85;;;26.50;99.90;;;;;;1902712;74;21203;-78
2021/09/24 03:30:42;;;;;;;5.47;3.47;;;26.50;99.90;;;;;;1865016;75;21705;-77
2021/09/24 03:33:13;;;;;;;5.62;3.62;;;26.60;99.90;;;;;;1915301;73;21173;-76
2021/09/24 03:35:43;;;;;;;7.47;3.25;;;26.50;99.90;;;;;;1905284;73;21796;-77
2021/09/24 03:38:14;;;;;;;6.42;3.62;;;26.60;99.90;;;;;;1917110;74;21172;-77
2021/09/24 03:40:45;;;;;;;5.95;3.50;;;26.50;99.90;;;;;;1902815;74;21542;-77
2021/09/24 03:43:16;;;;;;;6.37;3.47;;;26.60;99.90;;;;;;1904391;73;21152;-78
2021/09/24 03:45:47;;;;;;;4.95;2.98;;;26.60;99.90;;;;;;1908133;74;21712;-77
2021/09/24 03:48:18;;;;;;;4.80;3.20;;;26.50;99.90;;;;;;1907524;74;21611;-77
2021/09/24 03:50:49;;;;;;;5.25;3.10;;;26.50;99.90;;;;;;1908763;73;21059;-77
2021/09/24 03:54:02;;;;;;;5.25;3.47;;;26.40;99.90;;;;;;1915312;73;21156;-76
2021/09/24 03:56:32;;;;;;;6.95;3.37;;;26.40;99.90;;;;;;1923057;73;21147;-76
2021/09/24 03:59:03;;;;;;;5.53;3.60;;;26.40;99.90;;;;;;1930199;73;21108;-77
2021/09/24 04:01:46;;;;;;;5.15;3.22;;;26.40;99.90;;;;;;1909240;73;21582;-78
2021/09/24 04:04:18;;;;;;;7.53;3.37;;;26.40;99.90;;;;;;1921508;73;21148;-77
2021/09/24 04:06:49;;;;;;;6.22;3.17;;;26.40;99.90;;;;;;1919927;73;21131;-76
2021/09/24 04:09:49;;;;;;;;;;;;;;;;;;;;;
2021/09/24 04:15:38;;;;;;;8.08;4.20;;;26.50;99.90;;;;;;1906585;73;21124;-77
2021/09/24 04:21:18;;;;;;;6.17;4.00;;;26.50;99.90;;;;;;1906888;74;21166;-76
2021/09/24 04:23:49;;;;;;;7.92;4.60;;;26.50;99.90;;;;;;1903249;74;21160;-77
2021/09/24 04:26:19;;;;;;;8.13;4.05;;;26.50;99.90;;;;;;1910309;73;21713;-78
2021/09/24 04:28:50;;;;;;;4.20;3.50;;;26.60;99.90;;;;;;1912571;73;21261;-77
2021/09/24 04:31:21;;;;;;;5.97;3.83;;;26.60;99.90;;;;;;1906082;73;21608;-77
2021/09/24 04:33:54;;;;;;;7.33;3.85;;;26.60;99.90;;;;;;1915543;73;21282;-77
2021/09/24 04:36:26;;;;;;;5.78;3.40;;;26.70;99.90;;;;;;1906564;74;21657;-77
2021/09/24 04:45:35;;;;;;;8.93;4.12;;;26.70;99.90;;;;;;1913215;73;21157;-78
2021/09/24 04:48:25;;;;;;;4.45;3.15;;;26.70;99.90;;;;;;1910137;73;21510;-78
2021/09/24 04:51:10;;;;;;;5.15;3.02;;;26.70;99.90;;;;;;1908543;74;21135;-78
2021/09/24 04:53:34;;;;;;;5.22;3.70;;;26.70;99.90;;;;;;1905207;73;21303;-78
2021/09/24 04:56:08;;;;;;;6.78;2.95;;;26.70;99.90;;;;;;1902757;74;21086;-78
2021/09/24 04:58:42;;;;;;;5.83;2.65;;;26.70;99.90;;;;;;1906878;74;21116;-78
2021/09/24 05:01:13;;;;;;;4.47;2.77;;;26.70;99.90;;;;;;1902718;73;21216;-77
2021/09/24 05:03:45;;;;;;;5.03;3.02;;;26.70;99.90;;;;;;1909521;74;21116;-77
2021/09/24 05:06:17;;;;;;;3.55;2.52;;;26.70;99.90;;;;;;1868254;76;21122;-77
2021/09/24 05:08:47;;;;;;;4.03;2.58;;;26.70;99.90;;;;;;1898611;74;21553;-77
2021/09/24 05:11:18;;;;;;;3.58;2.98;;;26.70;99.90;;;;;;1918857;74;21120;-76
2021/09/24 05:13:49;;;;;;;4.80;3.60;;;26.80;99.90;;;;;;1892342;74;21163;-76
2021/09/24 05:16:20;;;;;;;8.33;4.00;;;26.80;99.90;;;;;;1903433;74;21330;-76
2021/09/24 05:18:56;;;;;;;4.60;3.95;;;26.80;99.90;;;;;;1904994;74;21159;-78
2021/09/24 05:21:32;;;;;;;5.95;4.30;;;26.90;99.90;;;;;;1903557;74;21106;-77
2021/09/24 05:24:10;;;;;;;5.35;4.03;;;26.90;99.90;;;;;;1907613;74;21199;-77
2021/09/24 05:26:49;;;;;;;4.65;3.67;;;27.00;99.90;;;;;;1896256;74;21210;-78
2021/09/24 05:29:21;;;;;;;5.08;3.30;;;27.00;99.90;;;;;;1903802;74;21690;-77
2021/09/24 05:31:53;;;;;;;4.67;3.20;;;27.10;99.90;;;;;;1903867;74;21599;-77
2021/09/24 05:38:26;;;;;;;3.65;2.42;;;27.20;99.90;;;;;;1903420;74;21128;-77
2021/09/24 05:41:00;;;;;;;3.50;2.50;;;27.30;99.90;;;;;;1904537;74;21529;-77
2021/09/24 05:43:31;;;;;;;5.42;2.60;;;27.30;99.90;;;;;;1897659;74;21224;-76
2021/09/24 05:46:02;;;;;;;4.92;2.17;;;27.40;99.90;;;;;;1895899;74;21748;-76
2021/09/24 05:48:34;;;;;;;4.78;3.05;;;27.50;99.90;;;;;;1857503;75;21533;-77
2021/09/24 05:51:11;;;;;;;2.95;2.10;;;27.60;99.90;;;;;;1901520;74;21149;-77
2021/09/24 05:53:52;;;;;;;3.70;2.17;;;27.80;99.90;;;;;;1903584;73;21604;-77
2021/09/24 05:56:34;;;;;;;5.42;2.02;;;27.80;99.90;;;;;;1847589;76;21774;-76
2021/09/24 05:59:05;;;;;;;2.55;1.90;;;27.90;99.90;;;;;;1790136;79;21163;-77
2021/09/24 06:01:36;;;;;;;4.00;2.00;;;27.90;99.90;;;;;;1800472;79;21210;-77
2021/09/24 06:04:07;;;;;;;3.27;2.15;;;27.90;99.90;;;;;;1808655;78;21190;-75
2021/09/24 06:06:37;;;;;;;2.67;1.72;;;27.90;99.90;;;;;;1826782;76;21144;-74
2021/09/24 06:09:08;;;;;;;2.42;1.75;;;27.90;99.90;;;;;;1820158;77;21267;-76
2021/09/24 06:11:39;;;;;;;2.80;2.00;;;27.90;99.90;;;;;;1823961;78;21134;-76
2021/09/24 06:14:10;;;;;;;3.33;2.00;;;27.80;99.90;;;;;;1822238;78;21651;-76
2021/09/24 06:16:41;;;;;;;3.22;2.25;;;27.80;99.90;;;;;;1815367;78;21202;-76
2021/09/24 06:19:12;;;;;;;2.80;1.80;;;27.80;99.90;;;;;;1821341;78;21234;-75
2021/09/24 06:21:45;;;;;;;2.20;1.50;;;27.90;99.90;;;;;;1835210;76;21152;-77
2021/09/24 06:30:02;;;;;;;2.30;1.47;;;27.80;99.90;;;;;;1823636;78;21730;-76
2021/09/24 06:32:33;;;;;;;2.62;1.52;;;27.80;99.90;;;;;;1769581;79;21257;-76
2021/09/24 06:35:05;;;;;;;2.83;1.70;;;27.70;99.90;;;;;;1896877;74;21183;-75
2021/09/24 06:37:35;;;;;;;4.50;1.92;;;27.80;99.90;;;;;;1895823;75;21679;-76
2021/09/24 06:40:08;;;;;;;2.08;1.57;;;27.80;99.90;;;;;;1848964;77;21189;-75
2021/09/24 06:42:39;;;;;;;3.83;1.77;;;27.80;99.90;;;;;;1892463;74;21636;-75
2021/09/24 06:45:13;;;;;;;4.05;1.95;;;27.80;99.90;;;;;;1908469;74;21692;-75
2021/09/24 06:47:45;;;;;;;4.97;2.02;;;27.80;99.90;;;;;;1900825;74;21174;-75
2021/09/24 06:50:15;;;;;;;3.12;1.90;;;27.80;99.90;;;;;;1899483;74;21174;-75
2021/09/24 06:55:51;;;;;;;3.22;2.00;;;27.80;99.90;;;;;;1902961;74;21107;-75
2021/09/24 06:58:22;;;;;;;3.50;2.08;;;27.80;99.90;;;;;;1908020;74;21153;-76
2021/09/24 07:00:52;;;;;;;4.10;2.00;;;27.80;99.90;;;;;;1881196;74;21687;-76
2021/09/24 07:03:23;;;;;;;4.28;2.22;;;27.80;99.90;;;;;;1896033;75;21093;-76
2021/09/24 07:05:54;;;;;;;2.87;2.10;;;27.80;99.90;;;;;;1894617;74;21133;-76
2021/09/24 07:08:26;;;;;;;4.85;1.95;;;27.90;99.90;;;;;;1905848;74;21154;-76
2021/09/24 07:10:57;;;;;;;3.77;2.17;;;27.90;99.90;;;;;;1900475;74;21594;-76
2021/09/24 07:13:28;;;;;;;4.33;2.02;;;27.90;99.90;;;;;;1902342;74;21219;-76
2021/09/24 07:15:59;;;;;;;3.87;1.98;;;27.80;99.90;;;;;;1903720;74;21201;-75
2021/09/24 07:18:30;;;;;;;4.45;2.40;;;27.80;99.90;;;;;;1849544;76;22153;-76
2021/09/24 07:21:01;;;;;;;3.02;2.10;;;27.80;99.90;;;;;;1849353;76;21176;-76
2021/09/24 07:23:32;;;;;;;3.95;2.50;;;27.80;99.90;;;;;;1890656;74;21189;-76
2021/09/24 07:34:49;;;;;;;4.03;2.70;;;27.80;99.90;;;;;;1892913;74;21087;-77
2021/09/24 07:37:20;;;;;;;4.95;2.05;;;27.90;99.90;;;;;;1847640;76;21148;-76
2021/09/24 07:39:51;;;;;;;5.15;2.05;;;28.00;99.90;;;;;;1861764;75;21582;-76
2021/09/24 07:42:21;;;;;;;3.47;2.20;;;28.10;99.90;;;;;;1903473;74;21528;-76
2021/09/24 07:44:53;;;;;;;5.97;2.70;;;28.10;99.90;;;;;;1898002;74;21718;-76
2021/09/24 07:50:18;;;;;;;4.47;2.40;;;28.20;99.90;;;;;;1905811;74;21163;-76
2021/09/24 07:52:49;;;;;;;3.12;2.10;;;28.20;99.90;;;;;;1899150;74;21595;-75
2021/09/24 07:55:20;;;;;;;3.83;2.27;;;28.20;99.90;;;;;;1909913;74;21155;-76
2021/09/24 08:00:55;;;;;;;4.40;2.20;;;28.20;99.90;;;;;;1908798;73;21120;-77
2021/09/24 08:03:27;;;;;;;4.33;2.90;;;28.20;99.90;;;;;;1913051;73;21186;-77
2021/09/24 08:05:57;;;;;;;5.20;2.72;;;28.20;99.90;;;;;;1900100;74;21104;-76
2021/09/24 08:08:29;;;;;;;4.30;2.87;;;28.20;99.90;;;;;;1910148;73;21109;-76
2021/09/24 08:11:00;;;;;;;4.70;2.62;;;28.20;99.90;;;;;;1905906;73;21182;-77
2021/09/24 08:13:31;;;;;;;3.58;2.80;;;28.20;99.90;;;;;;1913859;74;21217;-76
2021/09/24 08:16:02;;;;;;;3.90;2.62;;;28.20;99.90;;;;;;1895759;74;21629;-76
2021/09/24 08:18:33;;;;;;;4.50;2.80;;;28.10;99.90;;;;;;1911167;73;21839;-77
2021/09/24 08:21:23;;;;;;;5.15;2.42;;;28.10;99.90;;;;;;1908955;73;21144;-75
2021/09/24 08:23:54;;;;;;;4.12;2.90;;;28.10;99.90;;;;;;1908309;73;21124;-76
2021/09/24 08:29:41;;;;;;;4.37;2.92;;;28.10;99.90;;;;;;1908739;73;21134;-75
2021/09/24 08:32:13;;;;;;;3.83;2.67;;;28.10;99.90;;;;;;1904215;74;21109;-76
2021/09/24 08:34:45;;;;;;;4.42;2.90;;;28.10;99.90;;;;;;1887062;74;21574;-76
2021/09/24 08:37:16;;;;;;;3.92;2.70;;;28.20;99.90;;;;;;1905416;74;21697;-77
2021/09/24 08:39:46;;;;;;;11.40;3.20;;;28.10;99.90;;;;;;1910350;73;21285;-77
2021/09/24 08:42:18;;;;;;;3.15;2.70;;;28.10;99.90;;;;;;1888992;73;21135;-77
2021/09/24 08:44:50;;;;;;;3.55;2.60;;;28.20;99.90;;;;;;1911628;73;21261;-78
2021/09/24 08:47:21;;;;;;;4.20;2.90;;;28.20;99.90;;;;;;1895891;74;21087;-77
2021/09/24 08:49:52;;;;;;;5.28;2.77;;;28.20;99.90;;;;;;1904934;74;21284;-77
2021/09/24 08:52:23;;;;;;;3.47;2.75;;;28.30;99.90;;;;;;1902298;74;21140;-77
2021/09/24 08:54:56;;;;;;;3.67;2.77;;;28.20;99.90;;;;;;1886163;74;21123;-76
2021/09/24 08:57:26;;;;;;;7.25;2.92;;;28.20;99.90;;;;;;1906184;74;21210;-76
2021/09/24 09:09:50;;;;;;;4.85;2.60;;;28.00;99.90;;;;;;1891982;75;21130;-77
2021/09/24 09:12:21;;;;;;;5.87;2.83;;;28.00;99.90;;;;;;1896578;74;21097;-77
2021/09/24 09:14:54;;;;;;;4.25;2.95;;;28.00;99.90;;;;;;1911319;74;21156;-77
2021/09/24 09:17:26;;;;;;;4.08;2.87;;;27.90;99.90;;;;;;1889365;74;21728;-76
2021/09/24 09:19:59;;;;;;;4.03;3.10;;;27.90;99.90;;;;;;1885910;74;21221;-77
2021/09/24 09:22:31;;;;;;;10.85;5.58;;;27.90;99.90;;;;;;1887951;74;21643;-77
2021/09/24 09:25:02;;;;;;;4.15;3.42;;;27.80;99.90;;;;;;1899306;74;21107;-78
2021/09/24 09:27:33;;;;;;;5.20;2.90;;;27.90;99.90;;;;;;1910668;73;21274;-78
2021/09/24 09:30:11;;;;;;;5.45;2.80;;;27.90;99.90;;;;;;1912728;74;21603;-78
2021/09/24 09:32:39;;;;;;;4.80;3.02;;;27.80;99.90;;;;;;1927604;73;21140;-77
2021/09/24 09:35:11;;;;;;;6.45;3.40;;;27.80;99.90;;;;;;1893548;74;21105;-78
2021/09/24 09:37:42;;;;;;;4.53;2.77;;;27.80;99.90;;;;;;1886787;75;21120;-78
2021/09/24 09:40:16;;;;;;;3.85;2.70;;;27.80;99.90;;;;;;1903254;74;21545;-78
2021/09/24 09:42:47;;;;;;;4.75;2.83;;;27.80;99.90;;;;;;1915292;74;21112;-78
2021/09/24 09:45:19;;;;;;;6.58;2.90;;;27.80;99.90;;;;;;1911217;74;21144;-77
2021/09/24 09:47:59;;;;;;;5.28;3.00;;;27.80;99.90;;;;;;1900914;74;21472;-77
2021/09/24 09:50:29;;;;;;;6.05;2.80;;;27.80;99.90;;;;;;1902592;75;21709;-78
2021/09/24 09:53:03;;;;;;;5.03;2.65;;;27.80;99.90;;;;;;1906179;73;21253;-78
2021/09/24 09:55:36;;;;;;;8.20;3.37;;;27.80;99.90;;;;;;1891736;74;21176;-76
2021/09/24 09:58:10;;;;;;;13.32;4.40;;;27.70;99.90;;;;;;1899436;74;21187;-77
2021/09/24 10:00:49;;;;;;;10.95;3.62;;;27.80;99.90;;;;;;1904352;74;21713;-79
2021/09/24 10:03:22;;;;;;;8.50;3.15;;;27.70;99.90;;;;;;1900770;74;21596;-77
2021/09/24 10:05:54;;;;;;;5.62;3.15;;;27.70;99.90;;;;;;1897692;73;21579;-77
2021/09/24 10:08:26;;;;;;;7.15;3.52;;;27.70;99.90;;;;;;1886388;75;21185;-77
2021/09/24 10:10:59;;;;;;;7.62;3.42;;;27.70;99.90;;;;;;1902337;74;21135;-78
2021/09/24 10:13:33;;;;;;;5.37;3.20;;;27.60;99.90;;;;;;1899799;73;21126;-78
2021/09/24 10:16:05;;;;;;;5.55;3.22;;;27.60;99.90;;;;;;1924421;73;21213;-77
2021/09/24 10:18:36;;;;;;;6.58;3.47;;;27.60;99.90;;;;;;1902074;74;21802;-76
2021/09/24 10:21:06;;;;;;;5.17;3.27;;;27.50;99.90;;;;;;1912042;73;21245;-77
2021/09/24 10:23:37;;;;;;;7.20;3.40;;;27.50;99.90;;;;;;1902253;74;21185;-78
2021/09/24 10:26:11;;;;;;;7.05;3.40;;;27.50;99.90;;;;;;1889571;74;21543;-77
2021/09/24 10:28:43;;;;;;;4.47;3.42;;;27.50;99.90;;;;;;1908585;74;21242;-78
2021/09/24 10:31:16;;;;;;;7.83;3.55;;;27.40;99.90;;;;;;1907432;73;21102;-77
2021/09/24 10:33:48;;;;;;;4.45;2.90;;;27.40;99.90;;;;;;1894121;75;21579;-78
2021/09/24 10:36:21;;;;;;;4.20;3.17;;;27.40;99.90;;;;;;1902320;74;21250;-78
2021/09/24 10:38:52;;;;;;;6.33;3.00;;;27.40;99.90;;;;;;1908750;74;21132;-78
2021/09/24 10:41:23;;;;;;;5.28;3.27;;;27.40;99.90;;;;;;1917178;74;21182;-78
2021/09/24 10:43:56;;;;;;;6.17;2.98;;;27.30;99.90;;;;;;1904068;74;21699;-76
2021/09/24 10:46:29;;;;;;;4.08;3.58;;;27.30;99.90;;;;;;1892379;75;21155;-77
2021/09/24 10:49:02;;;;;;;5.30;3.60;;;27.30;99.90;;;;;;1855772;76;21109;-78
2021/09/24 10:51:50;;;;;;;5.65;3.47;;;27.20;99.90;;;;;;1926901;74;21109;-77
2021/09/24 10:54:23;;;;;;;5.95;3.15;;;27.20;99.90;;;;;;1890985;75;21253;-77
2021/09/24 10:56:56;;;;;;;5.08;3.20;;;27.20;99.90;;;;;;1901390;75;21131;-76
2021/09/24 10:59:30;;;;;;;6.22;4.00;;;27.20;99.90;;;;;;1890354;75;22228;-78
2021/09/24 11:02:02;;;;;;;4.75;3.55;;;27.20;99.90;;;;;;1898418;74;21089;-77
2021/09/24 11:04:35;;;;;;;5.53;3.50;;;27.20;99.90;;;;;;1908363;73;21082;-77
2021/09/24 11:07:28;;;;;;;6.60;3.62;;;27.10;99.90;;;;;;1919604;73;21132;-77
2021/09/24 11:13:15;;;;;;;5.45;4.50;;;27.20;99.90;;;;;;1828624;78;21088;-78
2021/09/24 11:15:48;;;;;;;8.43;4.90;;;27.10;99.90;;;;;;1843881;77;21248;-76
2021/09/24 11:18:21;;;;;;;9.05;5.55;;;27.10;99.90;;;;;;1846144;76;21141;-77
2021/09/24 11:20:55;;;;;;;6.30;3.83;;;27.00;99.90;;;;;;1852648;76;21124;-77
2021/09/24 11:23:28;;;;;;;6.10;4.20;;;27.00;99.90;;;;;;1865097;75;21124;-77
2021/09/24 11:26:11;;;;;;;5.00;3.08;;;27.00;99.90;;;;;;1862952;76;21592;-78
2021/09/24 11:28:45;;;;;;;3.52;2.75;;;26.90;99.90;;;;;;1913203;75;21080;-78
2021/09/24 11:31:20;;;;;;;5.70;2.70;;;26.90;99.90;;;;;;1905469;74;21615;-78
2021/09/24 11:33:51;;;;;;;6.10;4.22;;;26.90;99.90;;;;;;1916851;73;21156;-76
2021/09/24 11:36:24;;;;;;;6.12;3.15;;;26.90;99.90;;;;;;1917968;73;21540;-77
2021/09/24 11:39:00;;;;;;;5.03;3.90;;;26.80;99.90;;;;;;1908951;73;21144;-76
2021/09/24 11:41:40;;;;;;;6.87;4.15;;;26.90;99.90;;;;;;1898086;74;21146;-80
2021/09/24 11:44:13;;;;;;;6.35;4.12;;;26.80;99.90;;;;;;1902924;74;21210;-77
2021/09/24 11:46:48;;;;;;;6.40;4.47;;;26.80;99.90;;;;;;1907732;73;21207;-77
2021/09/24 11:49:20;;;;;;;6.40;3.92;;;26.80;99.90;;;;;;1913582;73;21061;-77
2021/09/24 11:52:00;;;;;;;10.88;4.67;;;26.80;99.90;;;;;;1920949;73;21262;-77
2021/09/24 11:54:45;;;;;;;5.55;4.03;;;26.80;99.90;;;;;;1902026;73;21116;-76
2021/09/24 12:00:39;;;;;;;7.10;3.92;;;26.80;99.90;;;;;;1910251;74;21193;-77
2021/09/24 12:03:12;;;;;;;10.18;4.00;;;26.80;99.90;;;;;;1913335;74;21258;-76
2021/09/24 12:09:03;;;;;;;7.00;3.98;;;26.80;99.90;;;;;;1910366;73;21615;-75
2021/09/24 12:11:37;;;;;;;6.35;3.85;;;26.80;99.90;;;;;;1907888;74;21073;-76
2021/09/24 12:14:21;;;;;;;4.90;3.77;;;26.80;99.90;;;;;;1918622;73;21102;-75
2021/09/24 12:16:53;;;;;;;5.42;4.10;;;26.80;99.90;;;;;;1907215;74;21718;-74
2021/09/24 12:19:26;;;;;;;7.00;3.92;;;26.80;99.90;;;;;;1913101;73;21143;-74
2021/09/24 12:21:59;;;;;;;4.35;3.20;;;26.80;99.90;;;;;;1898355;75;21628;-75
2021/09/24 12:24:37;;;;;;;6.92;3.58;;;26.70;99.90;;;;;;1897421;75;21575;-75
2021/09/24 12:27:08;;;;;;;7.08;3.62;;;26.70;99.90;;;;;;1895807;75;21163;-75
2021/09/24 12:36:13;;;;;;;6.53;2.72;;;26.80;99.90;;;;;;1899681;75;21941;-74
2021/09/24 12:38:44;;;;;;;5.85;3.52;;;26.70;99.90;;;;;;1918938;74;21186;-75
2021/09/24 12:44:05;;;;;;;6.20;2.77;;;26.60;99.90;;;;;;1920702;74;21117;-75
2021/09/24 12:47:04;;;;;;;3.92;2.75;;;26.60;99.90;;;;;;1923197;73;21081;-93
2021/09/24 12:58:38;;;;;;;;;;;26.70;99.90;;;;;;1847947;74;21280;-95
2021/09/24 13:01:15;;;;;;;8.68;3.33;;;26.70;99.90;;;;;;1831312;75;20288;-93
2021/09/24 13:03:46;;;;;;;5.28;3.05;;;26.70;99.90;;;;;;1830451;73;21542;-92
2021/09/24 13:06:19;;;;;;;5.30;2.58;;;26.70;99.90;;;;;;1828060;73;21250;-92
2021/09/24 13:08:52;;;;;;;4.25;3.15;;;26.70;99.90;;;;;;1797853;75;21118;-91
2021/09/24 13:15:21;;;;;;;7.33;3.75;;;26.70;99.90;;;;;;1845436;72;21146;-93
2021/09/24 13:18:12;;;;;;;7.62;3.60;;;26.70;99.90;;;;;;1839383;73;21132;-93
2021/09/24 13:24:14;;;;;;;4.83;2.87;;;26.80;99.90;;;;;;1841226;77;21257;-92
2021/09/24 13:26:52;;;;;;;5.22;3.02;;;26.80;99.90;;;;;;1849889;77;21164;-92
2021/09/24 13:29:22;;;;;;;4.25;2.55;;;26.70;99.90;;;;;;1824921;77;21575;-92
2021/09/24 13:31:55;;;;;;;6.80;2.80;;;26.70;99.90;;;;;;1820199;76;21658;-94
2021/09/24 13:34:32;;;;;;;4.55;2.55;;;26.60;99.90;;;;;;1855702;76;21611;-93
2021/09/24 13:36:58;;;;;;;4.40;2.60;;;26.60;99.90;;;;;;1864761;76;21081;-94
2021/09/24 13:42:48;;;;;;;4.12;2.40;;;26.40;99.90;;;;;;1837211;76;21085;-92
2021/09/24 13:45:22;;;;;;;3.95;2.35;;;26.30;99.90;;;;;;1809939;79;21179;-93
2021/09/24 13:47:53;;;;;;;4.12;2.62;;;26.20;99.90;;;;;;1808854;79;21147;-92
2021/09/24 13:50:24;;;;;;;6.00;2.60;;;26.20;99.90;;;;;;1872352;76;21165;-92
2021/09/24 13:56:03;;;;;;;4.83;2.17;;;26.10;99.90;;;;;;1858195;76;21563;-92
2021/09/24 13:59:32;;;;;;;5.35;2.42;;;26.10;99.90;;;;;;1851661;75;21180;-92
2021/09/24 14:01:48;;;;;;;4.40;2.47;;;26.00;99.90;;;;;;1836517;75;21188;-95
2021/09/24 14:04:18;;;;;;;7.58;2.67;;;26.00;99.90;;;;;;1780395;79;21250;-94
2021/09/24 14:07:00;;;;;;;4.58;2.20;;;26.00;99.90;;;;;;1770423;79;21223;-93
2021/09/24 14:09:36;;;;;;;4.62;2.92;;;26.00;99.90;;;;;;1744259;80;21750;-93
2021/09/24 14:12:09;;;;;;;3.92;2.60;;;26.00;99.90;;;;;;1781350;79;21206;-92
2021/09/24 14:30:00;;;;;;;5.62;2.80;;;26.00;99.90;;;;;;1943049;73;22217;-92
2021/09/24 14:32:33;;;;;;;6.53;3.08;;;25.90;99.90;;;;;;1914724;73;21724;-94
2021/09/24 14:38:49;;;;;;;6.10;2.95;;;25.90;99.90;;;;;;1902035;75;21195;-92
2021/09/24 14:45:09;;;;;;;6.30;3.00;;;25.90;99.90;;;;;;1903112;74;21091;-92
2021/09/24 14:47:46;;;;;;;6.40;2.60;;;25.90;99.90;;;;;;1903392;74;21839;-93
2021/09/24 14:53:46;;;;;;;4.47;2.75;;;25.90;99.90;;;;;;1915196;74;21906;-92
2021/09/24 14:56:20;;;;;;;6.90;3.02;;;25.90;99.90;;;;;;1911489;74;21178;-93
2021/09/24 15:05:17;;;;;;;5.90;3.20;;;25.90;99.90;;;;;;1871290;75;21133;-91
2021/09/24 15:07:51;;;;;;;4.75;3.45;;;25.90;99.90;;;;;;1872165;75;21179;-93
2021/09/24 15:10:22;;;;;;;6.45;2.75;;;25.90;99.90;;;;;;1871179;75;21159;-91
2021/09/24 15:13:01;;;;;;;6.12;3.72;;;25.90;99.90;;;;;;1868780;76;21179;-92
2021/09/24 15:15:34;;;;;;;6.00;3.30;;;25.90;99.90;;;;;;1870766;77;21143;-92
2021/09/24 15:18:10;;;;;;;6.28;3.58;;;25.80;99.90;;;;;;1868327;77;21459;-93
2021/09/24 15:20:44;;;;;;;7.37;3.52;;;25.80;99.90;;;;;;1860965;76;21512;-92
2021/09/24 15:23:33;;;;;;;4.80;3.10;;;25.80;99.90;;;;;;1868554;75;21638;-93
2021/09/24 15:26:14;;;;;;;5.22;3.20;;;25.80;99.90;;;;;;1867798;75;21180;-91
2021/09/24 15:32:09;;;;;;;6.17;3.10;;;25.80;99.90;;;;;;1870600;75;21165;-93
2021/09/24 15:41:48;;;;;;;6.65;3.17;;;25.80;99.90;;;;;;1921877;74;21119;-93
2021/09/24 15:44:25;;;;;;;5.72;3.22;;;25.80;99.90;;;;;;1904588;74;21139;-92
2021/09/24 15:47:00;;;;;;;5.00;3.15;;;25.80;99.90;;;;;;1904558;74;21175;-93
2021/09/24 15:53:15;;;;;;;6.62;2.95;;;25.70;99.90;;;;;;1926920;73;21170;-93
2021/09/24 15:55:46;;;;;;;5.62;2.60;;;25.80;99.90;;;;;;1897022;74;21115;-94
2021/09/24 16:11:25;;;;;;;6.17;2.47;;;25.50;99.90;;;;;;1921313;74;21199;-93
2021/09/24 16:14:05;;;;;;;3.92;2.12;;;25.50;99.90;;;;;;1906153;74;21525;-92
2021/09/24 16:16:41;;;;;;;4.40;2.30;;;25.50;99.90;;;;;;1891419;75;21583;-94
2021/09/24 16:19:25;;;;;;;6.70;2.35;;;25.50;99.90;;;;;;1905149;74;21536;-91